createdAt,value
2018-06-15T00:00:24.482Z,53.40
2018-06-15T00:02:58.924Z,53.30
2018-06-15T00:05:27.755Z,53.30
2018-06-15T00:07:56.608Z,53.30
2018-06-15T00:10:25.693Z,53.40
2018-06-15T00:12:54.549Z,53.40
2018-06-15T00:15:23.443Z,53.40
2018-06-15T00:17:52.330Z,53.40
2018-06-15T00:20:21.183Z,53.40
2018-06-15T00:22:50.077Z,53.50
2018-06-15T00:25:18.933Z,53.50
2018-06-15T00:27:47.788Z,53.40
2018-06-15T00:30:16.652Z,53.40
2018-06-15T00:32:45.512Z,53.40
2018-06-15T00:35:14.348Z,53.50
2018-06-15T00:37:44.061Z,53.40
2018-06-15T00:40:12.922Z,53.40
2018-06-15T00:42:41.760Z,53.50
2018-06-15T00:45:10.620Z,53.40
2018-06-15T00:47:39.483Z,53.50
2018-06-15T00:50:08.349Z,53.50
2018-06-15T00:52:37.201Z,53.50
2018-06-15T00:55:06.253Z,53.60
2018-06-15T00:57:46.868Z,53.50
2018-06-15T01:00:16.175Z,53.50
2018-06-15T01:02:45.021Z,53.50
2018-06-15T01:05:13.860Z,53.60
2018-06-15T01:07:42.748Z,53.60
2018-06-15T01:10:11.639Z,53.70
2018-06-15T01:12:40.495Z,53.70
2018-06-15T01:15:09.434Z,53.70
2018-06-15T01:17:38.524Z,53.70
2018-06-15T01:20:07.446Z,53.70
2018-06-15T01:22:36.290Z,53.70
2018-06-15T01:25:05.146Z,53.70
2018-06-15T01:27:33.973Z,53.70
2018-06-15T01:30:02.852Z,53.90
2018-06-15T01:32:31.657Z,53.70
2018-06-15T01:35:00.482Z,53.70
2018-06-15T01:37:29.311Z,53.80
2018-06-15T01:39:58.167Z,53.80
2018-06-15T01:42:27.003Z,53.80
2018-06-15T01:44:55.849Z,53.80
2018-06-15T01:47:24.735Z,53.80
2018-06-15T01:49:53.612Z,53.80
2018-06-15T01:52:22.465Z,53.80
2018-06-15T01:54:51.405Z,54.50
2018-06-15T01:57:20.268Z,54.60
2018-06-15T01:59:49.649Z,54.00
2018-06-15T02:02:18.487Z,54.00
2018-06-15T02:04:47.349Z,54.10
2018-06-15T02:07:16.233Z,54.00
2018-06-15T02:09:45.051Z,54.10
2018-06-15T02:14:42.429Z,54.20
2018-06-15T02:17:11.294Z,54.20
2018-06-15T02:19:40.181Z,54.20
2018-06-15T02:22:09.023Z,54.30
2018-06-15T02:24:37.856Z,54.30
2018-06-15T02:27:06.711Z,54.40
2018-06-15T02:29:35.555Z,54.30
2018-06-15T02:32:04.823Z,54.30
2018-06-15T02:34:33.652Z,54.30
2018-06-15T02:37:02.515Z,54.40
2018-06-15T02:39:31.351Z,54.40
2018-06-15T02:42:00.239Z,54.50
2018-06-15T02:44:29.089Z,54.50
2018-06-15T02:46:57.939Z,54.50
2018-06-15T02:49:26.804Z,54.50
2018-06-15T02:51:55.652Z,54.50
2018-06-15T02:54:24.508Z,54.50
2018-06-15T02:56:53.374Z,54.60
2018-06-15T02:59:22.246Z,54.70
2018-06-15T03:01:51.104Z,54.70
2018-06-15T03:04:20.035Z,54.60
2018-06-15T03:06:48.909Z,54.70
2018-06-15T03:09:17.774Z,54.70
2018-06-15T03:11:46.617Z,54.70
2018-06-15T03:14:15.467Z,54.70
2018-06-15T03:16:44.304Z,54.70
2018-06-15T03:19:13.182Z,54.80
2018-06-15T03:21:42.034Z,54.80
2018-06-15T03:24:10.872Z,54.40
2018-06-15T03:26:39.771Z,54.80
2018-06-15T03:31:37.156Z,54.80
2018-06-15T03:34:06.004Z,54.90
2018-06-15T03:36:34.835Z,54.90
2018-06-15T03:39:07.438Z,54.90
2018-06-15T03:41:36.466Z,55.00
2018-06-15T03:44:05.366Z,54.90
2018-06-15T03:46:34.390Z,54.90
2018-06-15T03:49:03.269Z,55.00
2018-06-15T03:51:32.207Z,55.00
2018-06-15T03:54:01.092Z,55.00
2018-06-15T03:56:29.932Z,55.10
2018-06-15T03:58:58.922Z,55.10
2018-06-15T04:01:27.858Z,55.10
2018-06-15T04:03:56.737Z,55.20
2018-06-15T04:06:25.588Z,54.60
2018-06-15T04:08:54.465Z,55.20
2018-06-15T04:11:23.350Z,55.20
2018-06-15T04:16:20.733Z,55.30
2018-06-15T04:18:49.600Z,55.40
2018-06-15T04:21:18.445Z,55.50
2018-06-15T04:23:47.717Z,55.50
2018-06-15T04:26:16.567Z,55.50
2018-06-15T04:28:45.587Z,55.50
2018-06-15T04:31:14.447Z,55.50
2018-06-15T04:33:47.068Z,55.60
2018-06-15T04:36:15.904Z,55.50
2018-06-15T04:38:44.786Z,55.60
2018-06-15T04:41:13.634Z,55.60
2018-06-15T04:43:42.594Z,55.50
2018-06-15T04:46:11.734Z,55.70
2018-06-15T04:48:40.650Z,56.40
2018-06-15T04:51:09.552Z,56.40
2018-06-15T04:53:39.182Z,56.10
2018-06-15T04:56:08.344Z,56.00
2018-06-15T04:58:37.269Z,56.00
2018-06-15T05:01:06.715Z,55.90
2018-06-15T05:03:35.549Z,55.90
2018-06-15T05:06:05.589Z,55.80
2018-06-15T05:08:34.428Z,56.50
2018-06-15T05:11:03.295Z,56.70
2018-06-15T05:13:32.192Z,56.90
2018-06-15T05:16:01.189Z,57.20
2018-06-15T05:18:30.125Z,56.80
2018-06-15T05:20:59.593Z,56.60
2018-06-15T05:23:28.445Z,56.40
2018-06-15T05:25:57.331Z,56.30
2018-06-15T05:28:26.219Z,56.60
2018-06-15T05:30:55.161Z,57.30
2018-06-15T05:33:24.171Z,57.10
2018-06-15T05:35:53.845Z,57.00
2018-06-15T05:38:22.951Z,57.10
2018-06-15T05:40:51.921Z,58.10
2018-06-15T05:43:20.861Z,58.90
2018-06-15T05:45:49.835Z,58.80
2018-06-15T05:48:19.025Z,58.70
2018-06-15T05:50:48.219Z,58.30
2018-06-15T05:53:17.192Z,58.70
2018-06-15T05:55:46.130Z,59.50
2018-06-15T05:58:15.026Z,59.30
2018-06-15T06:00:43.928Z,59.40
2018-06-15T06:03:17.167Z,59.20
2018-06-15T06:05:46.565Z,59.60
2018-06-15T06:08:16.785Z,59.50
2018-06-15T06:10:45.767Z,59.20
2018-06-15T06:13:14.667Z,59.80
2018-06-15T06:15:43.649Z,60.30
2018-06-15T06:18:12.531Z,59.90
2018-06-15T06:20:41.501Z,59.70
2018-06-15T06:23:10.318Z,59.60
2018-06-15T06:25:39.203Z,59.90
2018-06-15T06:28:08.185Z,60.00
2018-06-15T06:30:37.087Z,59.70
2018-06-15T06:33:05.944Z,59.70
2018-06-15T06:35:34.817Z,60.00
2018-06-15T06:40:33.119Z,59.50
2018-06-15T06:43:01.996Z,59.10
2018-06-15T06:45:30.865Z,58.90
2018-06-15T06:48:00.743Z,58.90
2018-06-15T06:50:29.700Z,58.80
2018-06-15T06:52:58.566Z,59.00
2018-06-15T06:55:27.410Z,59.00
2018-06-15T06:57:56.270Z,58.70
2018-06-15T07:00:25.185Z,58.80
2018-06-15T07:02:54.456Z,59.40
2018-06-15T07:05:23.700Z,58.70
2018-06-15T07:07:52.926Z,58.40
2018-06-15T07:10:22.263Z,58.70
2018-06-15T07:12:51.354Z,58.60
2018-06-15T07:15:20.222Z,58.70
2018-06-15T07:17:49.085Z,58.50
2018-06-15T07:20:17.990Z,58.40
2018-06-15T07:22:46.831Z,58.50
2018-06-15T07:25:16.021Z,58.00
2018-06-15T07:27:44.900Z,57.70
2018-06-15T07:30:13.828Z,57.30
2018-06-15T07:32:42.717Z,56.90
2018-06-15T07:35:11.571Z,56.50
2018-06-15T07:37:40.424Z,56.00
2018-06-15T07:40:10.131Z,55.70
2018-06-15T07:42:39.069Z,55.30
2018-06-15T07:45:07.997Z,54.90
2018-06-15T07:47:36.888Z,54.70
2018-06-15T07:50:05.759Z,54.20
2018-06-15T07:52:34.672Z,53.90
2018-06-15T07:55:04.616Z,53.50
2018-06-15T07:57:33.480Z,53.10
2018-06-15T08:00:02.398Z,52.80
2018-06-15T08:02:32.382Z,52.60
2018-06-15T08:05:01.325Z,52.70
2018-06-15T08:07:30.236Z,52.60
2018-06-15T08:09:59.831Z,52.30
2018-06-15T08:12:28.656Z,52.00
2018-06-15T08:14:57.549Z,51.80
2018-06-15T08:17:26.432Z,51.60
2018-06-15T08:19:55.298Z,51.50
2018-06-15T08:22:24.234Z,51.20
2018-06-15T08:24:53.120Z,50.50
2018-06-15T08:27:22.028Z,50.10
2018-06-15T08:29:50.939Z,50.00
2018-06-15T08:32:20.323Z,49.70
2018-06-15T08:34:49.562Z,49.40
2018-06-15T08:37:19.306Z,49.20
2018-06-15T08:39:48.709Z,48.90
2018-06-15T08:42:17.547Z,48.60
2018-06-15T08:44:46.546Z,48.40
2018-06-15T08:47:15.458Z,48.10
2018-06-15T08:49:44.418Z,48.00
2018-06-15T08:52:13.309Z,47.90
2018-06-15T08:54:42.177Z,47.80
2018-06-15T08:57:11.065Z,47.60
2018-06-15T08:59:39.976Z,47.40
2018-06-15T09:02:08.889Z,47.00
2018-06-15T09:04:37.829Z,46.80
2018-06-15T09:07:06.748Z,46.40
2018-06-15T09:09:35.728Z,45.90
2018-06-15T09:14:33.186Z,45.20
2018-06-15T09:19:30.669Z,44.10
2018-06-15T09:21:59.569Z,43.80
2018-06-15T09:24:28.434Z,43.70
2018-06-15T09:26:57.344Z,43.60
2018-06-15T09:29:26.216Z,43.50
2018-06-15T09:31:57.446Z,43.30
2018-06-15T09:34:26.634Z,43.20
2018-06-15T09:36:55.770Z,42.70
2018-06-15T09:41:53.389Z,43.00
2018-06-15T09:44:22.310Z,43.20
2018-06-15T09:46:51.278Z,43.30
2018-06-15T09:49:20.190Z,43.50
2018-06-15T09:51:49.065Z,43.80
2018-06-15T09:54:17.929Z,42.80
2018-06-15T09:56:46.790Z,42.90
2018-06-15T09:59:15.742Z,42.50
2018-06-15T10:01:46.384Z,42.40
2018-06-15T10:04:15.265Z,42.20
2018-06-15T10:06:44.140Z,41.20
2018-06-15T10:09:13.028Z,41.20
2018-06-15T10:11:41.930Z,40.70
2018-06-15T10:14:10.807Z,41.00
2018-06-15T10:16:39.686Z,41.40
2018-06-15T10:19:08.542Z,41.00
2018-06-15T10:21:41.605Z,41.00
2018-06-15T10:24:10.476Z,41.30
2018-06-15T10:26:39.412Z,41.40
2018-06-15T10:29:08.340Z,41.40
2018-06-15T10:31:42.862Z,40.70
2018-06-15T10:34:11.758Z,40.80
2018-06-15T10:36:40.657Z,39.50
2018-06-15T10:39:11.251Z,38.40
2018-06-15T10:41:40.696Z,39.30
2018-06-15T10:44:10.704Z,39.50
2018-06-15T10:46:39.730Z,38.50
2018-06-15T10:49:08.787Z,38.10
2018-06-15T10:51:38.460Z,38.10
2018-06-15T10:54:07.365Z,38.50
2018-06-15T10:56:36.260Z,37.70
2018-06-15T10:59:05.892Z,37.70
2018-06-15T11:01:34.812Z,37.60
2018-06-15T11:04:03.704Z,36.30
2018-06-15T11:06:32.596Z,35.50
2018-06-15T11:09:01.545Z,35.60
2018-06-15T11:11:30.653Z,35.10
2018-06-15T11:13:59.628Z,34.70
2018-06-15T11:16:28.594Z,34.10
2018-06-15T11:18:58.255Z,34.10
2018-06-15T11:21:27.160Z,33.80
2018-06-15T11:23:56.325Z,33.60
2018-06-15T11:26:25.600Z,33.60
2018-06-15T11:28:54.878Z,33.80
2018-06-15T11:31:23.803Z,33.30
2018-06-15T11:33:53.358Z,32.60
2018-06-15T11:36:22.211Z,32.80
2018-06-15T11:38:51.130Z,32.90
2018-06-15T11:41:20.577Z,31.50
2018-06-15T11:43:49.457Z,31.80
2018-06-15T11:46:18.352Z,32.00
2018-06-15T11:48:47.197Z,32.40
2018-06-15T11:51:16.038Z,32.00
2018-06-15T11:53:45.031Z,31.80
2018-06-15T11:56:14.162Z,32.10
2018-06-15T11:58:43.570Z,32.70
2018-06-15T12:01:12.401Z,32.40
2018-06-15T12:03:41.357Z,32.20
2018-06-15T12:06:10.548Z,32.10
2018-06-15T12:08:39.469Z,32.00
2018-06-15T12:11:08.417Z,32.10
2018-06-15T12:13:38.241Z,32.20
2018-06-15T12:16:07.443Z,32.50
2018-06-15T12:21:05.408Z,33.00
2018-06-15T12:23:34.209Z,33.40
2018-06-15T12:26:03.078Z,33.00
2018-06-15T12:28:32.083Z,33.10
2018-06-15T12:31:00.952Z,33.40
2018-06-15T12:33:29.798Z,33.50
2018-06-15T12:35:58.735Z,33.40
2018-06-15T12:38:27.667Z,33.50
2018-06-15T12:40:56.544Z,33.70
2018-06-15T12:43:27.423Z,33.10
2018-06-15T12:45:56.596Z,33.60
2018-06-15T12:48:25.378Z,33.80
2018-06-15T12:50:54.232Z,33.00
2018-06-15T12:53:23.051Z,33.40
2018-06-15T12:55:51.916Z,33.80
2018-06-15T12:58:20.821Z,33.90
2018-06-15T13:00:49.765Z,33.60
2018-06-15T13:03:18.949Z,33.20
2018-06-15T13:05:47.872Z,33.40
2018-06-15T13:08:16.741Z,33.40
2018-06-15T13:10:45.676Z,33.40
2018-06-15T13:13:14.552Z,33.80
2018-06-15T13:15:43.450Z,34.20
2018-06-15T13:18:12.389Z,34.30
2018-06-15T13:20:41.901Z,33.70
2018-06-15T13:23:10.800Z,33.80
2018-06-15T13:25:39.701Z,34.10
2018-06-15T13:28:08.650Z,33.80
2018-06-15T13:30:37.555Z,32.90
2018-06-15T13:33:06.400Z,33.20
2018-06-15T13:35:35.990Z,33.10
2018-06-15T13:38:04.844Z,33.70
2018-06-15T13:40:33.729Z,34.30
2018-06-15T13:43:02.666Z,33.80
2018-06-15T13:45:31.597Z,33.30
2018-06-15T13:48:00.493Z,33.80
2018-06-15T13:50:29.366Z,34.10
2018-06-15T13:52:58.246Z,34.40
2018-06-15T13:55:27.152Z,33.90
2018-06-15T13:57:56.072Z,34.50
2018-06-15T14:00:24.962Z,34.90
2018-06-15T14:02:53.728Z,34.70
2018-06-15T14:05:22.895Z,35.60
2018-06-15T14:07:52.039Z,34.90
2018-06-15T14:10:21.364Z,34.30
2018-06-15T14:12:50.611Z,33.00
2018-06-15T14:15:19.510Z,33.80
2018-06-15T14:17:48.562Z,34.50
2018-06-15T14:20:17.463Z,35.20
2018-06-15T14:22:46.294Z,34.50
2018-06-15T14:25:15.169Z,34.20
2018-06-15T14:27:44.036Z,33.80
2018-06-15T14:30:12.923Z,33.60
2018-06-15T14:32:41.777Z,34.40
2018-06-15T14:35:10.663Z,34.20
2018-06-15T14:37:39.655Z,35.30
2018-06-15T14:40:08.546Z,35.80
2018-06-15T14:42:38.145Z,35.80
2018-06-15T14:45:06.988Z,35.80
2018-06-15T14:47:35.883Z,36.10
2018-06-15T14:50:04.795Z,35.90
2018-06-15T14:52:33.723Z,35.50
2018-06-15T14:55:02.621Z,36.10
2018-06-15T14:57:31.521Z,35.80
2018-06-15T15:00:00.427Z,36.00
2018-06-15T15:02:29.341Z,36.30
2018-06-15T15:04:58.227Z,36.30
2018-06-15T15:09:55.676Z,36.40
2018-06-15T15:12:24.581Z,35.40
2018-06-15T15:14:53.488Z,36.00
2018-06-15T15:17:22.388Z,36.30
2018-06-15T15:19:51.235Z,36.50
2018-06-15T15:22:20.090Z,35.90
2018-06-15T15:24:48.881Z,35.70
2018-06-15T15:27:17.789Z,36.00
2018-06-15T15:29:46.706Z,36.40
2018-06-15T15:32:15.639Z,36.60
2018-06-15T15:34:44.552Z,36.60
2018-06-15T15:37:13.454Z,36.50
2018-06-15T15:39:42.292Z,36.60
2018-06-15T15:42:11.145Z,36.80
2018-06-15T15:44:39.980Z,36.90
2018-06-15T15:47:08.799Z,36.80
2018-06-15T15:49:37.653Z,36.80
2018-06-15T15:52:06.551Z,36.70
2018-06-15T15:54:35.418Z,36.70
2018-06-15T15:57:04.522Z,36.70
2018-06-15T15:59:33.512Z,36.70
2018-06-15T16:02:02.404Z,36.70
2018-06-15T16:04:31.230Z,36.30
2018-06-15T16:07:00.115Z,36.20
2018-06-15T16:09:29.235Z,36.10
2018-06-15T16:11:58.133Z,35.90
2018-06-15T16:14:27.081Z,36.10
2018-06-15T16:16:55.921Z,36.30
2018-06-15T16:19:25.685Z,36.00
2018-06-15T16:21:54.925Z,36.30
2018-06-15T16:24:23.837Z,36.40
2018-06-15T16:26:52.733Z,36.50
2018-06-15T16:29:21.574Z,36.60
2018-06-15T16:31:51.233Z,35.20
2018-06-15T16:34:20.124Z,34.60
2018-06-15T16:39:17.934Z,36.20
2018-06-15T16:41:47.334Z,36.40
2018-06-15T16:44:16.700Z,36.60
2018-06-15T16:46:45.671Z,36.90
2018-06-15T16:49:14.848Z,37.00
2018-06-15T16:51:44.610Z,36.70
2018-06-15T16:54:13.559Z,36.30
2018-06-15T16:56:42.470Z,36.30
2018-06-15T16:59:11.543Z,36.60
2018-06-15T17:01:42.482Z,35.80
2018-06-15T17:04:13.710Z,36.40
2018-06-15T17:06:44.149Z,36.90
2018-06-15T17:09:13.033Z,37.00
2018-06-15T17:11:41.902Z,36.80
2018-06-15T17:14:11.752Z,37.30
2018-06-15T17:16:41.780Z,37.10
2018-06-15T17:19:10.621Z,37.20
2018-06-15T17:21:43.543Z,36.90
2018-06-15T17:24:13.301Z,36.70
2018-06-15T17:26:42.248Z,37.20
2018-06-15T17:29:11.137Z,37.30
2018-06-15T17:31:40.465Z,37.40
2018-06-15T17:34:09.695Z,37.40
2018-06-15T17:36:43.876Z,37.40
2018-06-15T17:39:13.482Z,37.50
2018-06-15T17:41:43.516Z,37.50
2018-06-15T17:44:12.460Z,37.60
2018-06-15T17:46:41.320Z,38.30
2018-06-15T17:49:10.240Z,37.70
2018-06-15T17:51:39.107Z,37.80
2018-06-15T17:54:08.685Z,37.60
2018-06-15T17:56:37.787Z,37.70
2018-06-15T17:59:06.792Z,37.70
2018-06-15T18:01:35.722Z,37.80
2018-06-15T18:04:04.588Z,37.90
2018-06-15T18:06:33.474Z,37.90
2018-06-15T18:09:04.718Z,38.00
2018-06-15T18:11:33.587Z,38.00
2018-06-15T18:14:02.519Z,37.90
2018-06-15T18:16:31.388Z,38.00
2018-06-15T18:19:00.231Z,38.00
2018-06-15T18:21:29.297Z,38.10
2018-06-15T18:23:58.188Z,38.00
2018-06-15T18:26:27.062Z,38.30
2018-06-15T18:28:55.925Z,38.60
2018-06-15T18:31:24.841Z,38.80
2018-06-15T18:33:53.718Z,38.90
2018-06-15T18:36:22.926Z,39.00
2018-06-15T18:38:51.746Z,39.20
2018-06-15T18:41:20.599Z,39.40
2018-06-15T18:43:49.530Z,39.70
2018-06-15T18:46:18.363Z,40.00
2018-06-15T18:48:47.240Z,40.20
2018-06-15T18:51:16.057Z,40.50
2018-06-15T18:53:49.109Z,40.70
2018-06-15T18:56:17.979Z,40.80
2018-06-15T18:58:47.338Z,41.10
2018-06-15T19:01:16.262Z,41.30
2018-06-15T19:03:45.213Z,41.60
2018-06-15T19:06:15.057Z,41.70
2018-06-15T19:08:44.553Z,41.80
2018-06-15T19:11:13.467Z,42.00
2018-06-15T19:13:43.642Z,42.80
2018-06-15T19:16:13.498Z,42.20
2018-06-15T19:18:42.606Z,42.20
2018-06-15T19:21:11.596Z,42.10
2018-06-15T19:23:42.822Z,42.10
2018-06-15T19:26:12.607Z,42.00
2018-06-15T19:28:41.534Z,41.90
2018-06-15T19:31:10.535Z,41.90
2018-06-15T19:33:40.739Z,42.00
2018-06-15T19:36:09.682Z,41.90
2018-06-15T19:38:38.642Z,41.90
2018-06-15T19:41:08.567Z,41.90
2018-06-15T19:43:37.481Z,41.90
2018-06-15T19:46:06.376Z,41.80
2018-06-15T19:48:35.713Z,41.80
2018-06-15T19:51:04.781Z,41.90
2018-06-15T19:53:34.096Z,41.90
2018-06-15T19:56:03.044Z,41.90
2018-06-15T19:58:34.310Z,42.00
2018-06-15T20:01:05.213Z,42.10
2018-06-15T20:03:34.805Z,42.10
2018-06-15T20:06:04.717Z,42.10
2018-06-15T20:08:33.646Z,42.20
2018-06-15T20:11:02.557Z,42.30
2018-06-15T20:13:31.397Z,42.30
2018-06-15T20:16:00.253Z,42.40
2018-06-15T20:18:29.192Z,42.50
2018-06-15T20:20:58.083Z,42.50
2018-06-15T20:23:26.946Z,43.30
2018-06-15T20:25:55.835Z,42.70
2018-06-15T20:28:24.815Z,42.80
2018-06-15T20:30:54.582Z,42.90
2018-06-15T20:33:23.458Z,43.00
2018-06-15T20:35:52.398Z,43.00
2018-06-15T20:38:21.338Z,43.10
2018-06-15T20:40:50.231Z,43.30
2018-06-15T20:43:19.317Z,43.30
2018-06-15T20:45:48.777Z,43.40
2018-06-15T20:48:17.990Z,43.40
2018-06-15T20:50:47.135Z,43.50
2018-06-15T20:53:16.036Z,43.60
2018-06-15T20:55:44.919Z,44.20
2018-06-15T20:58:13.814Z,43.70
2018-06-15T21:00:42.729Z,43.70
2018-06-15T21:03:11.907Z,43.90
2018-06-15T21:05:41.207Z,43.90
2018-06-15T21:08:10.428Z,43.90
2018-06-15T21:10:39.738Z,44.00
2018-06-15T21:13:08.585Z,44.10
2018-06-15T21:15:37.532Z,44.20
2018-06-15T21:18:06.449Z,44.20
2018-06-15T21:20:35.337Z,44.30
2018-06-15T21:23:04.667Z,44.40
2018-06-15T21:25:33.600Z,44.50
2018-06-15T21:28:02.468Z,44.50
2018-06-15T21:30:31.373Z,44.60
2018-06-15T21:33:00.249Z,44.70
2018-06-15T21:35:29.117Z,44.80
2018-06-15T21:37:57.997Z,44.80
2018-06-15T21:40:26.867Z,44.90
2018-06-15T21:42:55.762Z,45.70
2018-06-15T21:45:24.601Z,45.20
2018-06-15T21:47:53.509Z,45.40
2018-06-15T21:50:22.405Z,45.90
2018-06-15T21:52:51.337Z,45.90
2018-06-15T21:55:20.511Z,45.60
2018-06-15T21:57:49.415Z,45.70
2018-06-15T22:00:18.309Z,45.60
2018-06-15T22:02:47.378Z,45.70
2018-06-15T22:05:16.257Z,45.80
2018-06-15T22:07:45.151Z,45.90
2018-06-15T22:10:14.010Z,45.90
2018-06-15T22:12:42.871Z,46.10
2018-06-15T22:15:12.113Z,46.10
2018-06-15T22:17:41.304Z,46.10
2018-06-15T22:20:10.279Z,46.10
2018-06-15T22:22:39.656Z,46.20
2018-06-15T22:25:08.557Z,46.10
2018-06-15T22:27:37.481Z,46.90
2018-06-15T22:32:42.465Z,46.30
2018-06-15T22:35:14.371Z,46.30
2018-06-15T22:37:43.585Z,46.30
2018-06-15T22:40:12.897Z,46.40
2018-06-15T22:42:41.894Z,46.40
2018-06-15T22:45:13.012Z,46.70
2018-06-15T22:47:41.885Z,46.60
2018-06-15T22:50:46.916Z,46.50
2018-06-15T22:53:17.726Z,46.60
2018-06-15T22:55:46.805Z,47.20
2018-06-15T22:58:15.821Z,46.60
2018-06-15T23:00:44.952Z,46.60
2018-06-15T23:03:14.252Z,46.70
2018-06-15T23:05:43.155Z,46.60
2018-06-15T23:08:12.722Z,46.70
2018-06-15T23:10:41.615Z,46.80
2018-06-15T23:13:10.503Z,46.70
2018-06-15T23:15:39.377Z,46.80
2018-06-15T23:18:08.253Z,46.80
2018-06-15T23:20:37.088Z,46.90
2018-06-15T23:23:05.930Z,46.90
2018-06-15T23:25:34.769Z,46.90
2018-06-15T23:28:03.625Z,46.90
2018-06-15T23:30:32.460Z,47.10
2018-06-15T23:33:01.358Z,47.10
2018-06-15T23:35:30.230Z,47.10
2018-06-15T23:37:59.391Z,47.10
2018-06-15T23:40:28.241Z,47.10
2018-06-15T23:42:57.108Z,47.10
2018-06-15T23:45:25.975Z,47.10
2018-06-15T23:47:54.818Z,47.20
2018-06-15T23:50:23.723Z,47.10
2018-06-15T23:52:52.795Z,47.10
2018-06-15T23:55:21.949Z,47.20
2018-06-15T23:57:50.836Z,47.40
